North Saint Paul, Minnesota
Current Conditions -  °F | °C
As of 10:53 AM on Saturday 22 Nov 2014 (Local Time) from KSTP Reporting Station
Haze Haze  
Wind Chill: 28°   Ceiling: 800
Heat Index: 35°   Visibility: 4mi
Dew Point: 33°   Wind: 9mph
Humidity: 92%   Direction: 180°S
Pressure: 29.76"   Gusts: NA
Location:  45.0145°N, 93.0259°W
Report Text: KSTP 221653Z 18008KT 4SM BR OVC008 02/01 A2976 RMK AO2 SLP083 T00170006
Loading
Personal Weather Stations






























Interactive Weather Map New forecast layout! Learn more

10-Day Weather Forecast

Advertisements
Track Severe Weather on mobile